createdAt,value
2022-10-07T00:01:25.210Z,4.80
2022-10-07T00:03:58.312Z,4.10
2022-10-07T00:09:01.633Z,4.55
2022-10-07T00:11:32.050Z,4.22
2022-10-07T00:14:10.150Z,4.25
2022-10-07T00:16:40.837Z,4.20
2022-10-07T00:19:12.150Z,4.28
2022-10-07T00:21:45.482Z,4.43
2022-10-07T00:24:16.181Z,4.80
2022-10-07T00:26:43.931Z,4.15
2022-10-07T00:29:17.577Z,4.18
2022-10-07T00:31:47.360Z,4.43
2022-10-07T00:34:17.342Z,4.43
2022-10-07T00:36:51.169Z,4.18
2022-10-07T00:39:21.006Z,4.25
2022-10-07T00:41:51.568Z,3.72
2022-10-07T00:44:38.240Z,4.03
2022-10-07T00:47:16.484Z,4.40
2022-10-07T00:50:04.157Z,4.30
2022-10-07T00:52:46.619Z,4.40
2022-10-07T00:55:20.662Z,4.43
2022-10-07T00:57:53.757Z,4.05
2022-10-07T01:00:24.232Z,4.90
2022-10-07T01:02:55.301Z,4.05
2022-10-07T01:05:30.755Z,4.50
2022-10-07T01:08:02.085Z,4.15
2022-10-07T01:11:03.016Z,3.85
2022-10-07T01:13:53.861Z,4.22
2022-10-07T01:16:35.884Z,4.30
2022-10-07T01:19:42.142Z,4.10
2022-10-07T01:22:25.542Z,4.18
2022-10-07T01:25:04.270Z,4.13
2022-10-07T01:27:36.348Z,3.80
2022-10-07T01:30:13.149Z,3.90
2022-10-07T01:32:49.739Z,4.28
2022-10-07T01:35:32.805Z,4.15
2022-10-07T01:38:08.576Z,3.97
2022-10-07T01:40:49.647Z,4.00
2022-10-07T01:43:26.859Z,4.25
2022-10-07T01:45:58.119Z,3.88
2022-10-07T01:48:36.955Z,3.92
2022-10-07T01:51:10.597Z,4.55
2022-10-07T01:53:56.500Z,3.97
2022-10-07T01:56:42.388Z,3.85
2022-10-07T01:59:48.882Z,4.05
2022-10-07T02:02:34.853Z,4.05
2022-10-07T02:05:29.865Z,3.90
2022-10-07T02:08:31.615Z,3.80
2022-10-07T02:11:14.507Z,4.28
2022-10-07T02:14:02.072Z,3.70
2022-10-07T02:16:53.344Z,4.03
2022-10-07T02:19:31.520Z,3.95
2022-10-07T02:22:02.812Z,3.70
2022-10-07T02:24:40.380Z,3.83
2022-10-07T02:27:17.933Z,3.90
2022-10-07T02:29:54.394Z,3.78
2022-10-07T02:32:27.027Z,3.58
2022-10-07T02:35:10.242Z,4.07
2022-10-07T02:37:48.443Z,3.70
2022-10-07T02:40:17.433Z,3.60
2022-10-07T02:43:03.563Z,3.83
2022-10-07T02:45:43.289Z,3.70
2022-10-07T02:48:31.219Z,3.70
2022-10-07T02:51:07.356Z,3.88
2022-10-07T02:53:40.256Z,3.92
2022-10-07T02:56:10.532Z,4.10
2022-10-07T02:58:45.761Z,3.78
2022-10-07T03:01:26.254Z,4.18
2022-10-07T03:03:57.205Z,3.75
2022-10-07T03:06:30.655Z,3.92
2022-10-07T03:09:05.387Z,3.97
2022-10-07T03:11:32.804Z,3.70
2022-10-07T03:14:00.387Z,4.05
2022-10-07T03:16:39.054Z,4.03
2022-10-07T03:19:10.936Z,3.40
2022-10-07T03:21:54.812Z,3.63
2022-10-07T03:24:26.608Z,4.03
2022-10-07T03:26:57.086Z,3.60
2022-10-07T03:29:33.350Z,3.58
2022-10-07T03:32:04.165Z,4.03
2022-10-07T03:34:37.589Z,4.15
2022-10-07T03:37:07.689Z,3.67
2022-10-07T03:39:42.627Z,3.65
2022-10-07T03:42:11.004Z,3.97
2022-10-07T03:44:41.642Z,3.53
2022-10-07T03:47:12.551Z,3.75
2022-10-07T03:49:43.468Z,3.72
2022-10-07T03:52:14.601Z,3.72
2022-10-07T03:57:36.974Z,3.90
2022-10-07T04:00:07.058Z,3.55
2022-10-07T04:02:45.589Z,3.53
2022-10-07T04:05:15.910Z,4.05
2022-10-07T04:07:48.519Z,3.90
2022-10-07T04:12:54.272Z,3.60
2022-10-07T04:15:22.489Z,3.92
2022-10-07T04:18:00.308Z,3.80
2022-10-07T04:20:35.213Z,3.63
2022-10-07T04:23:08.586Z,3.28
2022-10-07T04:25:46.819Z,3.70
2022-10-07T04:28:26.365Z,4.03
2022-10-07T04:31:11.671Z,3.60
2022-10-07T04:33:47.487Z,3.75
2022-10-07T04:36:28.616Z,3.80
2022-10-07T04:39:11.987Z,3.88
2022-10-07T04:41:48.169Z,3.60
2022-10-07T04:44:20.786Z,3.42
2022-10-07T04:46:57.530Z,3.80
2022-10-07T04:49:27.903Z,3.80
2022-10-07T04:52:01.001Z,3.42
2022-10-07T04:54:39.475Z,3.83
2022-10-07T04:57:16.309Z,3.65
2022-10-07T04:59:48.281Z,3.50
2022-10-07T05:02:28.494Z,3.13
2022-10-07T05:04:56.222Z,3.60
2022-10-07T05:07:26.806Z,3.40
2022-10-07T05:09:57.591Z,3.50
2022-10-07T05:12:28.776Z,3.53
2022-10-07T05:15:04.797Z,3.47
2022-10-07T05:17:35.843Z,3.22
2022-10-07T05:20:09.516Z,3.67
2022-10-07T05:22:39.709Z,3.40
2022-10-07T05:25:20.166Z,3.42
2022-10-07T05:27:55.136Z,3.88
2022-10-07T05:30:27.708Z,3.55
2022-10-07T05:32:58.699Z,3.45
2022-10-07T05:35:34.096Z,3.67
2022-10-07T05:38:02.502Z,3.70
2022-10-07T05:40:38.057Z,3.53
2022-10-07T05:43:05.884Z,3.65
2022-10-07T05:45:39.639Z,3.40
2022-10-07T05:48:07.555Z,3.55
2022-10-07T05:50:34.950Z,3.22
2022-10-07T05:53:10.166Z,3.22
2022-10-07T05:55:42.540Z,3.60
2022-10-07T05:58:14.076Z,3.20
2022-10-07T06:00:58.050Z,3.28
2022-10-07T06:05:59.598Z,3.15
2022-10-07T06:08:30.842Z,3.33
2022-10-07T06:13:55.567Z,3.13
2022-10-07T06:16:30.091Z,3.30
2022-10-07T06:19:04.097Z,3.50
2022-10-07T06:21:37.996Z,3.30
2022-10-07T06:24:10.844Z,3.15
2022-10-07T06:26:43.422Z,3.15
2022-10-07T06:29:17.598Z,2.92
2022-10-07T06:31:51.630Z,3.20
2022-10-07T06:34:23.104Z,3.47
2022-10-07T06:36:54.956Z,3.30
2022-10-07T06:39:23.574Z,3.30
2022-10-07T06:41:57.296Z,3.08
2022-10-07T06:44:59.629Z,3.20
2022-10-07T06:47:30.978Z,3.20
2022-10-07T06:50:04.629Z,2.88
2022-10-07T06:52:39.945Z,3.40
2022-10-07T06:55:10.585Z,2.60
2022-10-07T06:57:45.773Z,2.90
2022-10-07T07:00:22.832Z,3.60
2022-10-07T07:02:54.779Z,2.80
2022-10-07T07:05:35.784Z,3.22
2022-10-07T07:08:04.088Z,2.63
2022-10-07T07:10:42.234Z,2.92
2022-10-07T07:13:15.777Z,3.10
2022-10-07T07:16:00.169Z,2.70
2022-10-07T07:18:37.650Z,2.83
2022-10-07T07:21:09.020Z,2.92
2022-10-07T07:23:39.767Z,2.70
2022-10-07T07:26:07.611Z,2.60
2022-10-07T07:28:38.118Z,3.00
2022-10-07T07:31:14.834Z,2.88
2022-10-07T07:33:45.829Z,2.80
2022-10-07T07:36:20.088Z,2.45
2022-10-07T07:38:57.532Z,2.95
2022-10-07T07:41:37.526Z,3.17
2022-10-07T07:44:09.485Z,2.70
2022-10-07T07:46:43.827Z,2.85
2022-10-07T07:49:16.985Z,3.03
2022-10-07T07:51:54.877Z,2.50
2022-10-07T07:54:32.545Z,2.72
2022-10-07T07:59:34.936Z,2.70
2022-10-07T08:02:05.951Z,2.85
2022-10-07T08:04:40.450Z,3.10
2022-10-07T08:07:13.451Z,2.80
2022-10-07T08:09:47.560Z,2.78
2022-10-07T08:12:23.818Z,2.88
2022-10-07T08:14:59.028Z,2.90
2022-10-07T08:17:35.117Z,2.75
2022-10-07T08:20:06.338Z,2.92
2022-10-07T08:22:36.487Z,2.58
2022-10-07T08:25:07.068Z,2.60
2022-10-07T08:27:39.474Z,2.63
2022-10-07T08:30:08.950Z,2.63
2022-10-07T08:32:43.243Z,2.63
2022-10-07T08:35:12.318Z,2.60
2022-10-07T08:37:43.087Z,2.65
2022-10-07T08:40:17.166Z,2.65
2022-10-07T08:42:49.129Z,2.58
2022-10-07T08:45:29.676Z,2.80
2022-10-07T08:48:03.810Z,2.50
2022-10-07T08:51:09.347Z,2.63
2022-10-07T08:53:38.190Z,2.58
2022-10-07T08:56:27.161Z,2.40
2022-10-07T08:59:03.585Z,2.78
2022-10-07T09:01:46.992Z,2.40
2022-10-07T09:04:33.862Z,3.65
2022-10-07T09:07:24.017Z,2.50
2022-10-07T09:10:07.480Z,2.85
2022-10-07T09:12:41.891Z,2.42
2022-10-07T09:15:28.767Z,2.58
2022-10-07T09:18:04.311Z,2.55
2022-10-07T09:20:45.829Z,2.40
2022-10-07T09:23:18.835Z,2.63
2022-10-07T09:25:52.609Z,2.50
2022-10-07T09:28:29.170Z,2.20
2022-10-07T09:31:10.997Z,2.80
2022-10-07T09:33:47.488Z,2.40
2022-10-07T09:36:25.649Z,2.50
2022-10-07T09:38:54.053Z,2.25
2022-10-07T09:41:38.653Z,2.30
2022-10-07T09:44:25.772Z,2.28
2022-10-07T09:47:18.901Z,2.47
2022-10-07T09:49:54.338Z,2.30
2022-10-07T09:52:31.889Z,2.10
2022-10-07T09:55:49.703Z,2.50
2022-10-07T09:58:27.435Z,2.22
2022-10-07T10:01:00.996Z,2.03
2022-10-07T10:06:12.241Z,2.22
2022-10-07T10:08:45.026Z,1.92
2022-10-07T10:11:21.745Z,2.10
2022-10-07T10:13:51.424Z,1.83
2022-10-07T10:16:26.021Z,1.90
2022-10-07T10:19:06.639Z,2.20
2022-10-07T10:21:42.743Z,2.15
2022-10-07T10:24:16.848Z,2.13
2022-10-07T10:27:05.617Z,2.30
2022-10-07T10:30:05.191Z,2.00
2022-10-07T10:33:01.359Z,2.00
2022-10-07T10:35:32.208Z,2.13
2022-10-07T10:38:21.067Z,2.10
2022-10-07T10:41:30.210Z,2.00
2022-10-07T10:44:16.452Z,2.50
2022-10-07T10:46:55.920Z,2.38
2022-10-07T10:49:41.658Z,2.03
2022-10-07T10:52:27.306Z,1.92
2022-10-07T10:55:37.162Z,1.88
2022-10-07T10:58:48.615Z,1.98
2022-10-07T11:01:40.934Z,1.90
2022-10-07T11:04:39.026Z,2.17
2022-10-07T11:07:30.861Z,1.80
2022-10-07T11:10:07.200Z,2.15
2022-10-07T11:12:41.656Z,2.30
2022-10-07T11:15:46.668Z,1.98
2022-10-07T11:18:41.293Z,2.33
2022-10-07T11:21:40.513Z,2.15
2022-10-07T11:24:33.094Z,1.98
2022-10-07T11:27:15.153Z,2.00
2022-10-07T11:29:54.370Z,2.00
2022-10-07T11:32:38.282Z,2.05
2022-10-07T11:35:30.083Z,2.03
2022-10-07T11:38:11.051Z,1.90
2022-10-07T11:41:10.420Z,1.80
2022-10-07T11:43:49.333Z,2.10
2022-10-07T11:46:31.225Z,2.25
2022-10-07T11:49:16.213Z,2.00
2022-10-07T11:52:05.588Z,2.00
2022-10-07T11:54:43.914Z,2.08
2022-10-07T11:57:24.834Z,2.00
2022-10-07T12:00:26.717Z,1.90
2022-10-07T12:02:56.109Z,2.40
2022-10-07T12:05:41.638Z,2.25
2022-10-07T12:08:29.370Z,2.00
2022-10-07T12:11:15.151Z,2.00
2022-10-07T12:13:53.829Z,1.88
2022-10-07T12:16:24.992Z,2.08
2022-10-07T12:19:15.080Z,1.90
2022-10-07T12:22:03.198Z,1.90
2022-10-07T12:24:36.073Z,1.98
2022-10-07T12:27:29.373Z,2.00
2022-10-07T12:30:03.225Z,2.10
2022-10-07T12:32:53.266Z,2.55
2022-10-07T12:35:40.937Z,1.90
2022-10-07T12:38:23.584Z,2.05
2022-10-07T12:41:03.791Z,1.70
2022-10-07T12:43:47.976Z,1.90
2022-10-07T12:46:20.597Z,2.10
2022-10-07T12:48:55.567Z,1.98
2022-10-07T12:51:29.203Z,2.25
2022-10-07T12:56:29.282Z,2.00
2022-10-07T12:59:18.740Z,2.03
2022-10-07T13:01:52.826Z,2.00
2022-10-07T13:04:51.931Z,1.88
2022-10-07T13:08:00.430Z,2.13
2022-10-07T13:11:00.818Z,2.15
2022-10-07T13:14:04.084Z,1.90
2022-10-07T13:17:03.414Z,2.10
2022-10-07T13:19:49.294Z,2.30
2022-10-07T13:22:21.503Z,2.20
2022-10-07T13:24:57.163Z,1.90
2022-10-07T13:27:32.349Z,2.10
2022-10-07T13:30:10.445Z,1.85
2022-10-07T13:32:42.226Z,2.00
2022-10-07T13:35:38.794Z,2.00
2022-10-07T13:38:21.301Z,2.10
2022-10-07T13:41:15.357Z,2.00
2022-10-07T13:46:17.556Z,2.03
2022-10-07T13:48:49.192Z,1.90
2022-10-07T13:51:25.415Z,2.00
2022-10-07T13:54:00.974Z,1.90
2022-10-07T13:56:38.973Z,2.00
2022-10-07T13:59:08.744Z,1.75
2022-10-07T14:01:40.753Z,2.20
2022-10-07T14:04:13.422Z,2.00
2022-10-07T14:06:56.263Z,2.20
2022-10-07T14:09:45.952Z,1.95
2022-10-07T14:12:31.484Z,2.13
2022-10-07T14:15:24.091Z,2.13
2022-10-07T14:18:09.073Z,2.10
2022-10-07T14:20:51.996Z,2.03
2022-10-07T14:23:34.435Z,2.13
2022-10-07T14:26:18.116Z,2.40
2022-10-07T14:28:54.200Z,2.20
2022-10-07T14:31:46.189Z,2.33
2022-10-07T14:34:39.502Z,2.20
2022-10-07T14:37:15.718Z,2.30
2022-10-07T14:39:51.561Z,2.40
2022-10-07T14:42:33.597Z,2.38
2022-10-07T14:45:17.235Z,2.40
2022-10-07T14:47:57.395Z,2.10
2022-10-07T14:50:31.215Z,2.20
2022-10-07T14:53:05.757Z,2.42
2022-10-07T14:55:41.846Z,2.33
2022-10-07T14:58:14.122Z,2.42
2022-10-07T15:00:45.338Z,2.15
2022-10-07T15:03:18.740Z,2.33
2022-10-07T15:08:22.112Z,2.20
2022-10-07T15:10:59.399Z,2.53
2022-10-07T15:13:33.224Z,2.20
2022-10-07T15:16:04.230Z,2.38
2022-10-07T15:18:32.645Z,2.53
2022-10-07T15:21:04.988Z,2.30
2022-10-07T15:23:35.912Z,2.28
2022-10-07T15:26:06.519Z,2.75
2022-10-07T15:28:37.626Z,2.53
2022-10-07T15:31:14.696Z,2.30
2022-10-07T15:33:52.551Z,2.50
2022-10-07T15:36:23.488Z,2.20
2022-10-07T15:38:54.560Z,2.10
2022-10-07T15:41:33.373Z,2.33
2022-10-07T15:44:22.748Z,2.40
2022-10-07T15:46:55.396Z,2.28
2022-10-07T15:49:26.506Z,2.50
2022-10-07T15:51:57.025Z,2.40
2022-10-07T15:54:25.657Z,2.38
2022-10-07T15:56:56.461Z,2.33
2022-10-07T15:59:28.382Z,2.00
2022-10-07T16:01:56.185Z,2.20
2022-10-07T16:04:24.962Z,2.30
2022-10-07T16:06:56.060Z,1.98
2022-10-07T16:09:29.187Z,2.35
2022-10-07T16:11:59.304Z,2.20
2022-10-07T16:14:32.850Z,2.10
2022-10-07T16:17:04.378Z,2.25
2022-10-07T16:19:34.689Z,1.92
2022-10-07T16:22:05.794Z,2.30
2022-10-07T16:24:37.573Z,1.90
2022-10-07T16:27:06.972Z,1.85
